createdAt,value
2018-07-19T00:01:54.234Z,5.17
2018-07-19T00:04:23.227Z,6.00
2018-07-19T00:06:51.851Z,5.37
2018-07-19T00:09:22.211Z,4.87
2018-07-19T00:11:52.913Z,5.70
2018-07-19T00:14:22.564Z,5.27
2018-07-19T00:16:51.263Z,4.93
2018-07-19T00:19:19.925Z,5.40
2018-07-19T00:21:48.641Z,4.77
2018-07-19T00:24:17.297Z,5.13
2018-07-19T00:26:45.987Z,5.90
2018-07-19T00:29:14.631Z,5.37
2018-07-19T00:31:43.348Z,4.73
2018-07-19T00:34:12.002Z,4.67
2018-07-19T00:36:41.056Z,4.17
2018-07-19T00:39:09.932Z,3.83
2018-07-19T00:41:39.333Z,4.70
2018-07-19T00:44:08.022Z,3.37
2018-07-19T00:46:36.619Z,4.03
2018-07-19T00:49:05.618Z,4.03
2018-07-19T00:51:34.426Z,4.00
2018-07-19T00:54:03.384Z,3.90
2018-07-19T00:56:32.299Z,3.70
2018-07-19T00:59:01.029Z,3.27
2018-07-19T01:01:29.810Z,4.70
2018-07-19T01:03:58.660Z,3.10
2018-07-19T01:06:27.497Z,2.87
2018-07-19T01:08:56.368Z,2.47
2018-07-19T01:11:25.212Z,2.93
2018-07-19T01:13:53.936Z,2.37
2018-07-19T01:16:22.651Z,2.50
2018-07-19T01:18:51.619Z,2.70
2018-07-19T01:21:20.313Z,2.90
2018-07-19T01:23:48.972Z,2.77
2018-07-19T01:26:17.658Z,2.80
2018-07-19T01:28:46.332Z,2.60
2018-07-19T01:31:15.956Z,2.50
2018-07-19T01:33:44.809Z,2.53
2018-07-19T01:36:13.499Z,3.00
2018-07-19T01:38:42.283Z,3.00
2018-07-19T01:42:41.331Z,2.80
2018-07-19T01:45:10.747Z,2.33
2018-07-19T01:47:39.707Z,2.33
2018-07-19T01:50:09.151Z,2.60
2018-07-19T01:52:38.208Z,2.20
2018-07-19T01:55:07.230Z,2.63
2018-07-19T01:57:35.968Z,2.70
2018-07-19T02:00:05.333Z,2.63
2018-07-19T02:02:34.011Z,2.83
2018-07-19T02:05:02.741Z,2.00
2018-07-19T02:07:31.411Z,3.60
2018-07-19T02:10:00.141Z,2.60
2018-07-19T02:12:28.790Z,2.70
2018-07-19T02:14:57.691Z,2.50
2018-07-19T02:17:26.978Z,2.50
2018-07-19T02:19:55.692Z,3.07
2018-07-19T02:22:24.316Z,2.37
2018-07-19T02:24:53.205Z,2.47
2018-07-19T02:27:22.071Z,2.80
2018-07-19T02:29:50.727Z,3.00
2018-07-19T02:32:19.359Z,2.20
2018-07-19T02:34:47.964Z,3.10
2018-07-19T02:37:16.711Z,2.77
2018-07-19T02:39:45.372Z,2.40
2018-07-19T02:42:13.991Z,3.23
2018-07-19T02:44:42.671Z,2.93
2018-07-19T02:47:11.336Z,2.90
2018-07-19T02:49:40.040Z,3.10
2018-07-19T02:52:10.359Z,3.20
2018-07-19T02:54:39.000Z,3.37
2018-07-19T02:57:07.765Z,2.80
2018-07-19T02:59:36.464Z,3.07
2018-07-19T03:02:05.204Z,2.67
2018-07-19T03:04:34.843Z,2.80
2018-07-19T03:07:03.626Z,3.27
2018-07-19T03:09:32.350Z,2.80
2018-07-19T03:12:01.106Z,3.17
2018-07-19T03:14:29.845Z,3.73
2018-07-19T03:16:58.476Z,3.70
2018-07-19T03:19:27.167Z,2.83
2018-07-19T03:21:55.856Z,3.40
2018-07-19T03:24:24.536Z,3.17
2018-07-19T03:26:53.634Z,3.53
2018-07-19T03:29:22.480Z,3.60
2018-07-19T03:31:51.160Z,3.83
2018-07-19T03:34:19.929Z,3.20
2018-07-19T03:36:49.500Z,4.20
2018-07-19T03:39:18.161Z,3.50
2018-07-19T03:41:47.132Z,3.90
2018-07-19T03:44:16.706Z,3.97
2018-07-19T03:46:45.465Z,4.23
2018-07-19T03:49:14.179Z,4.23
2018-07-19T03:51:42.986Z,4.00
2018-07-19T03:54:12.390Z,3.70
2018-07-19T03:56:41.099Z,3.93
2018-07-19T03:59:10.090Z,4.40
2018-07-19T04:01:38.749Z,4.07
2018-07-19T04:04:07.477Z,3.93
2018-07-19T04:06:36.146Z,5.17
2018-07-19T04:09:06.467Z,4.03
2018-07-19T04:11:35.146Z,3.53
2018-07-19T04:14:03.997Z,4.00
2018-07-19T04:16:32.755Z,3.70
2018-07-19T04:19:01.470Z,4.17
2018-07-19T04:21:30.113Z,3.70
2018-07-19T04:23:58.795Z,3.40
2018-07-19T04:26:27.479Z,3.47
2018-07-19T04:28:56.191Z,3.33
2018-07-19T04:31:24.959Z,3.50
2018-07-19T04:33:53.748Z,2.97
2018-07-19T04:36:22.411Z,2.97
2018-07-19T04:38:51.247Z,4.10
2018-07-19T04:41:19.925Z,3.23
2018-07-19T04:43:48.633Z,3.10
2018-07-19T04:46:17.324Z,3.47
2018-07-19T04:48:46.011Z,2.50
2018-07-19T04:51:14.694Z,2.77
2018-07-19T04:53:43.454Z,2.60
2018-07-19T04:56:12.096Z,2.77
2018-07-19T04:58:40.829Z,2.20
2018-07-19T05:01:09.508Z,2.80
2018-07-19T05:03:38.260Z,2.50
2018-07-19T05:06:06.940Z,2.70
2018-07-19T05:08:35.624Z,2.03
2018-07-19T05:11:04.376Z,2.60
2018-07-19T05:13:33.573Z,1.90
2018-07-19T05:16:02.221Z,2.50
2018-07-19T05:18:30.823Z,2.10
2018-07-19T05:20:59.601Z,1.70
2018-07-19T05:23:28.312Z,2.30
2018-07-19T05:25:57.247Z,2.03
2018-07-19T05:28:25.992Z,1.90
2018-07-19T05:30:54.661Z,1.67
2018-07-19T05:33:23.361Z,1.60
2018-07-19T05:35:52.086Z,2.17
2018-07-19T05:38:20.728Z,1.53
2018-07-19T05:40:49.421Z,1.73
2018-07-19T05:43:18.127Z,1.70
2018-07-19T05:45:46.923Z,1.53
2018-07-19T05:48:15.653Z,1.67
2018-07-19T05:50:44.488Z,1.83
2018-07-19T05:53:13.253Z,2.07
2018-07-19T05:55:41.959Z,1.80
2018-07-19T05:58:10.714Z,2.60
2018-07-19T06:00:39.412Z,2.00
2018-07-19T06:03:08.100Z,2.20
2018-07-19T06:05:36.852Z,2.43
2018-07-19T06:08:05.487Z,2.30
2018-07-19T06:10:34.157Z,2.30
2018-07-19T06:13:02.824Z,1.90
2018-07-19T06:15:31.487Z,2.03
2018-07-19T06:18:00.334Z,1.90
2018-07-19T06:20:29.104Z,2.37
2018-07-19T06:22:57.872Z,1.77
2018-07-19T06:25:27.050Z,2.13
2018-07-19T06:27:55.813Z,2.20
2018-07-19T06:30:24.936Z,2.00
2018-07-19T06:32:53.621Z,1.93
2018-07-19T06:35:22.307Z,2.20
2018-07-19T06:37:50.973Z,2.33
2018-07-19T06:40:19.757Z,1.97
2018-07-19T06:42:48.567Z,2.03
2018-07-19T06:45:17.507Z,1.83
2018-07-19T06:47:46.282Z,2.60
2018-07-19T06:50:15.087Z,1.60
2018-07-19T06:52:43.858Z,1.70
2018-07-19T06:55:13.035Z,2.00
2018-07-19T06:57:41.756Z,2.17
2018-07-19T07:00:10.534Z,2.40
2018-07-19T07:02:39.209Z,1.70
2018-07-19T07:05:07.874Z,2.23
2018-07-19T07:07:36.692Z,2.40
2018-07-19T07:10:05.453Z,1.73
2018-07-19T07:12:34.141Z,1.60
2018-07-19T07:15:02.992Z,2.47
2018-07-19T07:17:31.600Z,2.47
2018-07-19T07:20:00.553Z,1.67
2018-07-19T07:22:29.316Z,2.27
2018-07-19T07:24:58.167Z,1.60
2018-07-19T07:27:27.198Z,2.90
2018-07-19T07:29:56.068Z,2.47
2018-07-19T07:32:24.877Z,2.03
2018-07-19T07:34:53.695Z,2.10
2018-07-19T07:37:22.672Z,1.87
2018-07-19T07:39:51.434Z,3.10
2018-07-19T07:42:26.606Z,2.10
2018-07-19T07:44:55.568Z,1.97
2018-07-19T07:47:24.423Z,2.20
2018-07-19T07:49:53.196Z,3.03
2018-07-19T07:52:21.932Z,2.77
2018-07-19T07:54:50.658Z,2.60
2018-07-19T07:57:19.440Z,2.37
2018-07-19T07:59:48.439Z,2.30
2018-07-19T08:02:17.196Z,2.43
2018-07-19T08:04:45.820Z,2.27
2018-07-19T08:07:15.025Z,1.70
2018-07-19T08:09:43.725Z,2.37
2018-07-19T08:12:12.456Z,2.37
2018-07-19T08:14:41.094Z,2.83
2018-07-19T08:17:09.915Z,2.60
2018-07-19T08:19:38.601Z,2.23
2018-07-19T08:22:07.290Z,1.80
2018-07-19T08:24:35.935Z,2.40
2018-07-19T08:27:04.656Z,2.10
2018-07-19T08:29:33.360Z,2.43
2018-07-19T08:32:02.181Z,3.10
2018-07-19T08:34:30.856Z,2.00
2018-07-19T08:36:59.536Z,2.40
2018-07-19T08:39:28.207Z,2.77
2018-07-19T08:41:56.950Z,3.20
2018-07-19T08:44:25.572Z,3.40
2018-07-19T08:46:54.300Z,2.63
2018-07-19T08:49:22.961Z,3.00
2018-07-19T08:51:52.232Z,2.30
2018-07-19T08:54:20.949Z,2.30
2018-07-19T08:56:49.784Z,3.13
2018-07-19T08:59:18.488Z,2.63
2018-07-19T09:01:47.360Z,2.20
2018-07-19T09:04:16.059Z,2.43
2018-07-19T09:06:44.731Z,3.17
2018-07-19T09:09:13.429Z,3.33
2018-07-19T09:11:42.088Z,2.50
2018-07-19T09:14:10.850Z,2.70
2018-07-19T09:16:39.493Z,2.60
2018-07-19T09:19:08.229Z,2.77
2018-07-19T09:21:37.066Z,3.07
2018-07-19T09:24:05.808Z,2.70
2018-07-19T09:26:34.495Z,2.60
2018-07-19T09:29:03.187Z,2.53
2018-07-19T09:31:31.876Z,3.07
2018-07-19T09:34:00.579Z,2.43
2018-07-19T09:36:29.342Z,2.57
2018-07-19T09:38:58.025Z,2.67
2018-07-19T09:41:26.660Z,3.40
2018-07-19T09:43:55.468Z,2.93
2018-07-19T09:46:24.188Z,2.70
2018-07-19T09:48:53.012Z,3.23
2018-07-19T09:51:21.798Z,2.90
2018-07-19T09:53:50.621Z,3.40
2018-07-19T09:56:19.547Z,3.47
2018-07-19T09:58:48.292Z,3.67
2018-07-19T10:01:19.725Z,2.60
2018-07-19T10:03:49.689Z,2.90
2018-07-19T10:06:18.339Z,2.60
2018-07-19T10:08:46.983Z,3.03
2018-07-19T10:11:16.272Z,2.90
2018-07-19T10:13:46.011Z,3.30
2018-07-19T10:16:14.619Z,3.10
2018-07-19T10:18:43.492Z,3.27
2018-07-19T10:21:12.139Z,2.83
2018-07-19T10:23:41.030Z,3.00
2018-07-19T10:26:09.704Z,3.20
2018-07-19T10:28:38.409Z,3.13
2018-07-19T10:31:07.375Z,3.80
2018-07-19T10:33:36.132Z,3.10
2018-07-19T10:36:04.885Z,3.90
2018-07-19T10:38:33.564Z,3.40
2018-07-19T10:41:02.251Z,3.37
2018-07-19T10:43:30.964Z,2.93
2018-07-19T10:45:59.743Z,2.70
2018-07-19T10:48:28.403Z,3.23
2018-07-19T10:50:57.190Z,3.17
2018-07-19T10:53:25.875Z,2.70
2018-07-19T10:55:54.536Z,2.83
2018-07-19T10:58:23.237Z,3.07
2018-07-19T11:00:51.907Z,3.10
2018-07-19T11:03:20.552Z,2.57
2018-07-19T11:05:49.215Z,3.00
2018-07-19T11:08:17.958Z,2.80
2018-07-19T11:10:46.815Z,2.53
2018-07-19T11:13:15.746Z,2.70
2018-07-19T11:15:44.824Z,2.27
2018-07-19T11:18:13.596Z,2.70
2018-07-19T11:20:42.328Z,2.43
2018-07-19T11:23:11.076Z,2.23
2018-07-19T11:25:39.764Z,2.43
2018-07-19T11:28:08.543Z,2.40
2018-07-19T11:30:37.252Z,3.07
2018-07-19T11:33:06.130Z,2.30
2018-07-19T11:35:34.939Z,2.10
2018-07-19T11:38:03.750Z,2.10
2018-07-19T11:40:33.017Z,2.53
2018-07-19T11:43:01.736Z,2.60
2018-07-19T11:45:30.729Z,1.57
2018-07-19T11:47:59.416Z,2.30
2018-07-19T11:50:28.155Z,2.37
2018-07-19T11:52:56.824Z,1.73
2018-07-19T11:55:25.517Z,1.97
2018-07-19T11:57:54.428Z,2.20
2018-07-19T12:00:23.212Z,2.10
2018-07-19T12:02:51.966Z,2.47
2018-07-19T12:05:20.787Z,1.80
2018-07-19T12:07:50.507Z,2.60
2018-07-19T12:10:19.187Z,2.07
2018-07-19T12:12:48.324Z,2.40
2018-07-19T12:15:17.080Z,2.37
2018-07-19T12:17:45.843Z,3.00
2018-07-19T12:20:14.540Z,3.00
2018-07-19T12:22:43.329Z,2.37
2018-07-19T12:25:12.060Z,2.77
2018-07-19T12:27:40.775Z,2.67
2018-07-19T12:30:09.223Z,2.37
2018-07-19T12:32:37.913Z,2.80
2018-07-19T12:35:06.584Z,2.40
2018-07-19T12:37:35.299Z,2.23
2018-07-19T12:40:03.993Z,2.43
2018-07-19T12:42:32.885Z,3.07
2018-07-19T12:45:01.684Z,6.40
2018-07-19T12:47:30.368Z,8.77
2018-07-19T12:49:59.253Z,3.00
2018-07-19T12:52:28.447Z,3.00
2018-07-19T12:54:57.076Z,3.60
2018-07-19T12:57:25.739Z,2.67
2018-07-19T12:59:54.378Z,2.70
2018-07-19T13:02:23.013Z,2.90
2018-07-19T13:04:51.803Z,2.70
2018-07-19T13:07:20.514Z,3.13
2018-07-19T13:09:49.193Z,2.60
2018-07-19T13:12:18.168Z,3.23
2018-07-19T13:14:47.104Z,2.87
2018-07-19T13:17:15.886Z,2.57
2018-07-19T13:19:44.532Z,3.13
2018-07-19T13:22:13.207Z,4.33
2018-07-19T13:24:42.457Z,18.57
2018-07-19T13:27:11.154Z,10.30
2018-07-19T13:29:39.889Z,17.77
2018-07-19T13:32:08.720Z,6.07
2018-07-19T13:34:37.636Z,10.90
2018-07-19T13:37:06.292Z,10.37
2018-07-19T13:39:34.937Z,6.43
2018-07-19T13:42:03.630Z,7.80
2018-07-19T13:44:32.351Z,8.10
2018-07-19T13:47:00.997Z,5.30
2018-07-19T13:49:29.680Z,4.93
2018-07-19T13:51:58.386Z,4.53
2018-07-19T13:54:47.643Z,3.73
2018-07-19T13:57:16.479Z,5.10
2018-07-19T13:59:45.300Z,12.53
2018-07-19T14:02:14.412Z,29.93
2018-07-19T14:04:43.115Z,43.83
2018-07-19T14:07:11.864Z,33.03
2018-07-19T14:09:40.761Z,10.83
2018-07-19T14:12:09.468Z,19.07
2018-07-19T14:14:38.189Z,50.83
2018-07-19T14:17:07.024Z,28.07
2018-07-19T14:19:36.009Z,42.40
2018-07-19T14:22:04.788Z,9.20
2018-07-19T14:24:33.534Z,6.70
2018-07-19T14:27:02.362Z,17.20
2018-07-19T14:29:31.146Z,10.93
2018-07-19T14:32:00.294Z,7.90
2018-07-19T14:34:29.034Z,10.43
2018-07-19T14:36:57.732Z,4.20
2018-07-19T14:39:26.674Z,16.00
2018-07-19T14:41:55.367Z,25.13
2018-07-19T14:44:24.189Z,15.83
2018-07-19T14:46:52.866Z,12.00
2018-07-19T14:49:21.554Z,13.63
2018-07-19T14:51:50.242Z,29.40
2018-07-19T14:54:19.169Z,30.17
2018-07-19T14:56:47.808Z,5.47
2018-07-19T14:59:16.604Z,6.43
2018-07-19T15:01:45.220Z,5.30
2018-07-19T15:04:13.939Z,6.27
2018-07-19T15:06:42.564Z,4.37
2018-07-19T15:09:11.860Z,4.47
2018-07-19T15:11:41.057Z,5.40
2018-07-19T15:14:09.721Z,4.67
2018-07-19T15:16:38.364Z,4.00
2018-07-19T15:19:07.056Z,3.83
2018-07-19T15:21:35.799Z,4.90
2018-07-19T15:24:04.569Z,4.40
2018-07-19T15:26:33.314Z,3.93
2018-07-19T15:29:02.140Z,3.93
2018-07-19T15:31:30.796Z,3.33
2018-07-19T15:33:59.608Z,4.10
2018-07-19T15:36:28.285Z,3.30
2018-07-19T15:38:56.968Z,3.43
2018-07-19T15:41:25.668Z,3.80
2018-07-19T15:43:54.354Z,3.53
2018-07-19T15:46:23.000Z,3.10
2018-07-19T15:48:51.646Z,3.60
2018-07-19T15:51:20.265Z,3.40
2018-07-19T15:53:48.990Z,2.83
2018-07-19T15:56:17.628Z,3.07
2018-07-19T15:58:46.355Z,3.10
2018-07-19T16:01:15.104Z,3.10
2018-07-19T16:03:43.862Z,3.13
2018-07-19T16:06:12.540Z,3.30
2018-07-19T16:08:41.304Z,3.00
2018-07-19T16:11:10.120Z,3.03
2018-07-19T16:13:38.828Z,2.50
2018-07-19T16:16:07.690Z,2.53
2018-07-19T16:18:36.407Z,2.70
2018-07-19T16:21:05.137Z,2.80
2018-07-19T16:23:34.030Z,2.60
2018-07-19T16:26:03.217Z,2.83
2018-07-19T16:28:32.260Z,2.90
2018-07-19T16:31:00.977Z,3.30
2018-07-19T16:33:29.724Z,13.97
2018-07-19T16:35:58.368Z,6.73
2018-07-19T16:38:27.170Z,10.07
2018-07-19T16:40:56.019Z,4.67
2018-07-19T16:43:24.961Z,11.47
2018-07-19T16:45:53.819Z,17.70
2018-07-19T16:48:23.097Z,64.90
2018-07-19T16:50:51.877Z,93.53
2018-07-19T16:53:20.732Z,36.57
2018-07-19T16:55:49.440Z,45.50
2018-07-19T16:58:18.153Z,23.47
2018-07-19T17:00:46.904Z,46.93
2018-07-19T17:03:15.589Z,8.13
2018-07-19T17:05:44.280Z,6.43
2018-07-19T17:08:13.004Z,6.33
2018-07-19T17:10:41.805Z,4.53
2018-07-19T17:13:10.592Z,3.90
2018-07-19T17:15:39.326Z,7.30
2018-07-19T17:18:08.083Z,4.77
2018-07-19T17:20:36.858Z,3.00
2018-07-19T17:23:05.543Z,3.20
2018-07-19T17:25:34.233Z,3.53
2018-07-19T17:28:03.163Z,3.17
2018-07-19T17:30:31.827Z,2.90
2018-07-19T17:33:00.572Z,2.23
2018-07-19T17:35:29.321Z,2.90
2018-07-19T17:37:58.029Z,2.63
2018-07-19T17:40:27.731Z,2.87
2018-07-19T17:42:56.584Z,2.30
2018-07-19T17:45:25.261Z,3.33
2018-07-19T17:47:54.039Z,2.83
2018-07-19T17:50:22.740Z,2.77
2018-07-19T17:52:51.793Z,3.20
2018-07-19T17:55:20.837Z,2.93
2018-07-19T17:57:49.559Z,3.10
2018-07-19T18:00:18.244Z,3.10
2018-07-19T18:02:46.965Z,17.03
2018-07-19T18:05:17.465Z,39.30
2018-07-19T18:07:46.504Z,30.03
2018-07-19T18:10:15.159Z,30.47
2018-07-19T18:12:44.040Z,11.80
2018-07-19T18:15:12.750Z,24.53
2018-07-19T18:17:41.698Z,24.47
2018-07-19T18:20:10.425Z,9.57
2018-07-19T18:22:39.137Z,31.70
2018-07-19T18:25:08.268Z,7.30
2018-07-19T18:27:37.144Z,9.33
2018-07-19T18:30:06.852Z,6.83
2018-07-19T18:32:35.543Z,6.40
2018-07-19T18:35:04.226Z,6.87
2018-07-19T18:37:33.019Z,5.00
2018-07-19T18:40:01.665Z,3.27
2018-07-19T18:42:30.398Z,6.63
2018-07-19T18:44:59.144Z,5.20
2018-07-19T18:47:27.822Z,5.97
2018-07-19T18:49:56.468Z,4.27
2018-07-19T18:52:25.124Z,3.97
2018-07-19T18:54:53.788Z,3.23
2018-07-19T18:57:22.498Z,3.53
2018-07-19T18:59:51.180Z,3.03
2018-07-19T19:02:19.866Z,3.80
2018-07-19T19:04:48.862Z,3.60
2018-07-19T19:07:17.602Z,3.20
2018-07-19T19:09:46.417Z,3.97
2018-07-19T19:12:15.149Z,5.37
2018-07-19T19:14:43.793Z,3.70
2018-07-19T19:17:12.593Z,3.50
2018-07-19T19:19:41.312Z,3.60
2018-07-19T19:22:09.981Z,3.40
2018-07-19T19:24:38.720Z,3.37
2018-07-19T19:27:07.450Z,3.20
2018-07-19T19:29:36.925Z,3.47
2018-07-19T19:32:05.800Z,3.67
2018-07-19T19:34:34.471Z,3.50
2018-07-19T19:37:03.231Z,3.30
2018-07-19T19:39:32.014Z,26.83
2018-07-19T19:42:00.885Z,31.20
2018-07-19T19:44:29.696Z,40.60
2018-07-19T19:46:59.593Z,12.60
2018-07-19T19:49:28.422Z,14.03
2018-07-19T19:51:57.141Z,24.97
2018-07-19T19:54:26.012Z,56.13
2018-07-19T19:56:54.795Z,80.17
2018-07-19T19:59:23.549Z,157.23
2018-07-19T20:01:53.365Z,43.27
2018-07-19T20:04:22.082Z,22.93
2018-07-19T20:06:50.921Z,15.10
2018-07-19T20:09:19.912Z,11.30
2018-07-19T20:11:48.793Z,9.83
2018-07-19T20:14:17.582Z,7.07
2018-07-19T20:16:46.269Z,5.50
2018-07-19T20:19:15.232Z,4.97
2018-07-19T20:21:43.955Z,5.70
2018-07-19T20:24:13.661Z,4.83
2018-07-19T20:26:42.712Z,5.73
2018-07-19T20:29:11.477Z,4.93
2018-07-19T20:31:40.396Z,4.80
2018-07-19T20:34:09.291Z,5.27
2018-07-19T20:36:38.802Z,4.97
2018-07-19T20:39:08.401Z,4.30
2018-07-19T20:41:37.796Z,4.17
2018-07-19T20:44:06.595Z,4.23
2018-07-19T20:46:36.856Z,4.57
2018-07-19T20:49:05.641Z,4.50
2018-07-19T20:51:34.360Z,5.40
2018-07-19T20:54:03.088Z,5.17
2018-07-19T20:56:31.991Z,4.37
2018-07-19T20:59:00.761Z,4.13
2018-07-19T21:01:29.444Z,4.13
2018-07-19T21:03:58.177Z,57.87
2018-07-19T21:06:30.592Z,71.43
2018-07-19T21:08:59.805Z,73.93
2018-07-19T21:11:28.531Z,31.00
2018-07-19T21:13:57.306Z,45.80
2018-07-19T21:16:26.188Z,35.80
2018-07-19T21:18:55.108Z,76.57
2018-07-19T21:21:24.012Z,60.40
2018-07-19T21:23:52.711Z,54.17
2018-07-19T21:26:23.352Z,35.83
2018-07-19T21:28:55.498Z,26.93
2018-07-19T21:31:25.788Z,19.80
2018-07-19T21:33:54.585Z,15.87
2018-07-19T21:36:23.327Z,14.10
2018-07-19T21:38:52.484Z,6.83
2018-07-19T21:41:26.349Z,6.60
2018-07-19T21:43:55.306Z,5.03
2018-07-19T21:46:24.001Z,5.80
2018-07-19T21:48:52.688Z,12.00
2018-07-19T21:51:27.348Z,53.83
2018-07-19T21:53:56.949Z,26.33
2018-07-19T21:56:25.651Z,43.77
2018-07-19T21:58:54.427Z,29.10
2018-07-19T22:01:30.893Z,45.00
2018-07-19T22:03:59.652Z,34.23
2018-07-19T22:06:33.896Z,21.60
2018-07-19T22:09:02.681Z,36.30
2018-07-19T22:11:31.420Z,8.93
2018-07-19T22:14:00.125Z,6.43
2018-07-19T22:16:28.818Z,6.13
2018-07-19T22:18:57.500Z,5.80
2018-07-19T22:21:26.474Z,6.03
2018-07-19T22:23:55.248Z,4.27
2018-07-19T22:26:24.017Z,3.40
2018-07-19T22:28:52.636Z,3.50
2018-07-19T22:31:24.615Z,3.70
2018-07-19T22:33:53.368Z,3.40
2018-07-19T22:36:22.052Z,3.30
2018-07-19T22:38:50.773Z,3.23
2018-07-19T22:41:19.546Z,3.13
2018-07-19T22:43:48.233Z,3.20
2018-07-19T22:46:16.851Z,3.60
2018-07-19T22:48:45.545Z,3.10
2018-07-19T22:51:14.228Z,3.30
2018-07-19T22:53:44.027Z,3.93
2018-07-19T22:56:15.243Z,3.13
2018-07-19T22:58:43.997Z,3.30
2018-07-19T23:01:12.797Z,2.97
2018-07-19T23:03:43.704Z,3.10
2018-07-19T23:06:12.512Z,2.37
2018-07-19T23:08:41.269Z,2.80
2018-07-19T23:11:09.986Z,2.90
2018-07-19T23:13:38.708Z,3.10
2018-07-19T23:16:07.685Z,2.93
2018-07-19T23:18:36.397Z,3.23
2018-07-19T23:21:05.376Z,2.90
2018-07-19T23:23:34.144Z,2.90
2018-07-19T23:26:04.049Z,2.63
2018-07-19T23:28:32.760Z,2.83
2018-07-19T23:31:01.464Z,2.83
2018-07-19T23:33:30.235Z,2.67
2018-07-19T23:36:07.456Z,3.13
2018-07-19T23:38:41.472Z,2.87
2018-07-19T23:41:14.456Z,2.70
2018-07-19T23:43:47.825Z,2.50
2018-07-19T23:46:18.824Z,2.87
2018-07-19T23:48:47.930Z,3.03
2018-07-19T23:51:16.613Z,3.20
2018-07-19T23:53:45.253Z,3.37
2018-07-19T23:56:13.946Z,2.57
2018-07-19T23:58:42.652Z,2.40
